Time;durP1;ratioP1;P1;durP2;ratioP2;P2;SDS_P1;SDS_P2;PMS_P1;PMS_P2;Temp;Humidity;BMP_temperature;BMP_pressure;BME280_temperature;BME280_humidity;BME280_pressure;Samples;Min_cycle;Max_cycle;Signal;HPM_P1;HPM_P2
2024/01/07 00:02:57;;;;;;;105.23;35.00;;;3.60;99.90;;;;;;782251;180;26467;-83
2024/01/07 00:25:03;;;;;;;100.37;35.00;;;3.70;99.90;;;;;;760743;186;26520;-81
2024/01/07 00:27:57;;;;;;;;;;;;;;;;;;;;;
2024/01/07 00:30:43;;;;;;;81.57;30.37;;;3.80;99.90;;;;;;799221;178;26428;-81
2024/01/07 00:33:17;;;;;;;80.17;29.33;;;3.80;99.90;;;;;;806418;178;26385;-85
2024/01/07 00:35:54;;;;;;;63.67;26.20;;;3.80;99.90;;;;;;805338;176;26420;-82
2024/01/07 00:38:22;;;;;;;75.10;26.83;;;3.80;99.90;;;;;;804908;176;26478;-84
2024/01/07 00:40:56;;;;;;;75.20;26.53;;;3.70;99.90;;;;;;803931;179;26472;-84
2024/01/07 00:43:25;;;;;;;71.53;26.30;;;3.70;99.90;;;;;;803366;179;26473;-84
2024/01/07 00:46:10;;;;;;;71.83;24.93;;;3.70;99.90;;;;;;803045;179;26458;-81
2024/01/07 00:48:44;;;;;;;71.30;26.20;;;3.80;99.90;;;;;;803138;179;26423;-87
2024/01/07 00:54:04;;;;;;;70.17;26.53;;;3.80;99.90;;;;;;803098;179;26452;-84
2024/01/07 00:56:38;;;;;;;68.23;27.20;;;3.80;99.90;;;;;;803034;176;26485;-84
2024/01/07 00:59:07;;;;;;;74.23;27.63;;;3.70;99.90;;;;;;802870;179;26434;-84
2024/01/07 01:01:38;;;;;;;70.47;26.73;;;3.70;99.90;;;;;;802854;178;26475;-85
2024/01/07 01:04:15;;;;;;;67.67;25.57;;;3.70;99.90;;;;;;804389;175;26430;-84
2024/01/07 01:06:46;;;;;;;61.87;25.27;;;3.70;99.90;;;;;;800317;179;26955;-84
2024/01/07 01:09:13;;;;;;;62.47;25.10;;;3.80;99.90;;;;;;792714;176;26537;-81
2024/01/07 01:11:40;;;;;;;63.40;26.13;;;3.70;99.90;;;;;;756066;189;26563;-81
2024/01/07 01:14:06;;;;;;;57.60;23.90;;;3.70;99.90;;;;;;757166;189;26554;-81
2024/01/07 01:16:33;;;;;;;59.40;25.00;;;3.70;99.90;;;;;;753974;189;26536;-82
2024/01/07 01:19:01;;;;;;;63.60;23.80;;;3.70;99.90;;;;;;745172;190;26557;-83
2024/01/07 01:21:27;;;;;;;54.13;22.13;;;3.70;99.90;;;;;;752910;189;26532;-83
2024/01/07 01:23:54;;;;;;;49.30;21.10;;;3.70;99.90;;;;;;758382;189;26508;-82
2024/01/07 01:26:21;;;;;;;54.03;22.60;;;3.70;99.90;;;;;;757396;189;26611;-80
2024/01/07 01:28:49;;;;;;;58.80;24.30;;;3.70;99.90;;;;;;756728;189;26543;-81
2024/01/07 01:31:15;;;;;;;58.77;24.33;;;3.60;99.90;;;;;;757789;189;26600;-81
2024/01/07 01:33:42;;;;;;;52.13;21.20;;;3.70;99.90;;;;;;758732;189;26507;-81
2024/01/07 01:36:09;;;;;;;52.87;22.07;;;3.70;99.90;;;;;;759486;187;26486;-83
2024/01/07 01:38:38;;;;;;;55.30;22.77;;;3.70;99.90;;;;;;759975;188;26557;-81
2024/01/07 01:41:04;;;;;;;51.47;20.60;;;3.60;99.90;;;;;;757803;189;26502;-83
2024/01/07 01:43:31;;;;;;;56.77;23.50;;;3.70;99.90;;;;;;757788;190;26549;-81
2024/01/07 01:45:58;;;;;;;55.20;23.90;;;3.80;99.90;;;;;;757969;189;26475;-81
2024/01/07 01:48:26;;;;;;;52.40;20.80;;;3.80;99.90;;;;;;757172;190;26492;-79
2024/01/07 01:50:53;;;;;;;56.70;23.67;;;3.70;99.90;;;;;;757049;190;26523;-82
2024/01/07 01:53:19;;;;;;;50.17;21.00;;;3.70;99.90;;;;;;756649;189;27139;-82
2024/01/07 01:55:48;;;;;;;58.77;22.93;;;3.70;99.90;;;;;;757025;188;26522;-81
2024/01/07 01:58:15;;;;;;;48.87;20.77;;;3.70;99.90;;;;;;758673;188;26479;-83
2024/01/07 02:00:43;;;;;;;44.90;20.17;;;3.70;99.90;;;;;;758896;186;27069;-79
2024/01/07 02:03:10;;;;;;;48.13;19.13;;;3.80;99.90;;;;;;758945;189;26515;-81
2024/01/07 02:05:37;;;;;;;43.97;19.73;;;3.80;99.90;;;;;;759017;189;26486;-82
2024/01/07 02:08:07;;;;;;;45.73;20.40;;;3.80;99.90;;;;;;758804;189;26480;-83
2024/01/07 02:10:36;;;;;;;49.97;19.47;;;3.90;99.90;;;;;;757947;186;26477;-82
2024/01/07 02:13:19;;;;;;;45.30;20.57;;;3.80;99.90;;;;;;759321;188;26481;-80
2024/01/07 02:15:46;;;;;;;49.00;20.60;;;3.90;99.90;;;;;;758542;187;26491;-80
2024/01/07 02:18:13;;;;;;;47.17;19.87;;;3.90;99.90;;;;;;758719;188;26554;-80
2024/01/07 02:20:41;;;;;;;48.93;21.23;;;3.90;99.90;;;;;;759867;189;26527;-81
2024/01/07 02:23:08;;;;;;;41.77;19.07;;;3.80;99.90;;;;;;759990;189;26519;-79
2024/01/07 02:25:38;;;;;;;44.97;19.63;;;3.80;99.80;;;;;;758938;189;26482;-80
2024/01/07 02:28:18;;;;;;;45.40;19.97;;;3.80;99.80;;;;;;759979;189;26534;-81
2024/01/07 02:30:56;;;;;;;43.53;20.43;;;3.80;99.90;;;;;;778668;173;26587;-81
2024/01/07 02:33:29;;;;;;;44.97;19.90;;;3.80;99.80;;;;;;779420;184;27151;-82
2024/01/07 02:36:02;;;;;;;47.47;20.90;;;3.80;99.70;;;;;;778912;183;26495;-82
2024/01/07 02:38:37;;;;;;;44.50;20.37;;;3.80;99.60;;;;;;778899;184;26506;-81
2024/01/07 02:41:03;;;;;;;50.87;21.57;;;3.80;99.60;;;;;;775067;182;27054;-82
2024/01/07 02:43:30;;;;;;;46.17;21.17;;;3.80;99.70;;;;;;781948;182;26715;-81
2024/01/07 02:45:57;;;;;;;46.17;20.77;;;3.80;99.70;;;;;;783250;181;26509;-82
2024/01/07 02:48:24;;;;;;;43.07;20.57;;;3.90;99.80;;;;;;795974;179;26496;-81
2024/01/07 02:50:50;;;;;;;50.10;22.03;;;3.80;99.60;;;;;;789750;179;26469;-82
2024/01/07 02:53:16;;;;;;;52.30;23.17;;;3.90;99.40;;;;;;787600;181;26482;-81
2024/01/07 02:55:43;;;;;;;53.47;22.67;;;3.90;99.40;;;;;;788385;181;26485;-81
2024/01/07 02:58:09;;;;;;;49.80;23.70;;;3.90;99.40;;;;;;790252;180;26450;-82
2024/01/07 03:00:37;;;;;;;55.37;22.43;;;3.90;99.50;;;;;;778829;182;26515;-82
2024/01/07 03:03:04;;;;;;;61.07;24.77;;;3.80;99.30;;;;;;781603;183;26534;-83
2024/01/07 03:05:32;;;;;;;67.33;26.97;;;3.80;99.30;;;;;;786591;182;26488;-84
2024/01/07 03:07:58;;;;;;;69.03;26.47;;;3.80;99.30;;;;;;790300;180;26501;-82
2024/01/07 03:10:25;;;;;;;64.00;26.23;;;3.70;99.40;;;;;;790481;181;26485;-84
2024/01/07 03:12:52;;;;;;;66.00;26.03;;;3.70;99.40;;;;;;780895;183;26515;-84
2024/01/07 03:15:19;;;;;;;61.57;25.70;;;3.70;99.50;;;;;;763157;186;26505;-84
2024/01/07 03:17:57;;;;;;;68.93;27.87;;;3.70;99.90;;;;;;780661;179;26489;-83
2024/01/07 03:20:27;;;;;;;63.33;26.33;;;3.70;99.90;;;;;;763005;186;27050;-83
2024/01/07 03:23:05;;;;;;;60.37;26.33;;;3.70;99.90;;;;;;771014;183;26487;-84
2024/01/07 03:25:44;;;;;;;72.30;29.43;;;3.60;99.90;;;;;;781858;180;26989;-83
2024/01/07 03:28:11;;;;;;;66.87;27.13;;;3.60;99.90;;;;;;779298;183;26531;-84
2024/01/07 03:30:37;;;;;;;68.10;26.97;;;3.60;99.90;;;;;;784931;181;26508;-83
2024/01/07 03:33:23;;;;;;;65.20;27.13;;;3.60;99.90;;;;;;792565;181;26463;-83
2024/01/07 03:36:06;;;;;;;62.43;26.07;;;3.50;99.90;;;;;;780884;181;26517;-82
2024/01/07 03:41:47;;;;;;;67.90;27.90;;;3.60;99.90;;;;;;737119;191;26617;-84
2024/01/07 03:44:17;;;;;;;79.67;29.83;;;3.60;99.90;;;;;;747522;185;26537;-83
2024/01/07 03:49:40;;;;;;;83.83;32.57;;;3.50;99.90;;;;;;762671;187;26891;-81
2024/01/07 03:52:17;;;;;;;82.93;32.90;;;3.60;99.90;;;;;;761670;185;26558;-82
2024/01/07 03:54:51;;;;;;;88.07;32.87;;;3.60;99.90;;;;;;757715;185;26510;-82
2024/01/07 03:57:37;;;;;;;98.13;37.17;;;3.60;99.90;;;;;;773418;184;27041;-84
2024/01/07 04:00:12;;;;;;;96.70;33.73;;;3.50;99.90;;;;;;775834;183;26509;-83
2024/01/07 04:02:41;;;;;;;98.77;35.60;;;3.50;99.90;;;;;;778124;183;26487;-84
2024/01/07 04:05:17;;;;;;;93.80;33.93;;;3.50;99.90;;;;;;766791;178;26596;-83
2024/01/07 04:07:47;;;;;;;96.30;33.73;;;3.60;99.90;;;;;;751622;189;27125;-84
2024/01/07 04:10:22;;;;;;;88.63;32.63;;;3.60;99.90;;;;;;771335;184;26507;-83
2024/01/07 04:13:03;;;;;;;77.47;30.50;;;3.60;99.90;;;;;;769223;185;26664;-82
2024/01/07 04:15:43;;;;;;;84.73;31.67;;;3.60;99.90;;;;;;769844;185;26485;-82
2024/01/07 04:18:22;;;;;;;87.67;31.70;;;3.60;99.90;;;;;;770647;184;26507;-82
2024/01/07 04:20:57;;;;;;;83.73;31.13;;;3.60;99.80;;;;;;769641;185;26496;-82
2024/01/07 04:23:29;;;;;;;91.87;33.83;;;3.50;99.70;;;;;;769646;185;26516;-83
2024/01/07 04:25:56;;;;;;;87.43;31.73;;;3.40;99.70;;;;;;769025;183;26518;-82
2024/01/07 04:28:32;;;;;;;87.87;33.53;;;3.50;99.90;;;;;;769429;185;26478;-82
2024/01/07 04:31:08;;;;;;;78.93;30.83;;;3.50;99.90;;;;;;768079;185;26498;-83
2024/01/07 04:33:37;;;;;;;84.57;32.20;;;3.50;99.90;;;;;;768020;185;26514;-83
2024/01/07 04:36:25;;;;;;;75.43;29.37;;;3.50;99.90;;;;;;769904;185;26525;-82
2024/01/07 04:39:06;;;;;;;76.70;30.07;;;3.60;99.90;;;;;;770889;185;26576;-81
2024/01/07 04:41:43;;;;;;;73.50;29.90;;;3.60;99.90;;;;;;764012;185;26607;-82
2024/01/07 04:44:10;;;;;;;74.27;29.13;;;3.60;99.90;;;;;;773324;185;26565;-83
2024/01/07 04:46:38;;;;;;;74.27;29.53;;;3.60;99.90;;;;;;767360;185;26489;-82
2024/01/07 04:49:05;;;;;;;84.50;31.90;;;3.70;99.90;;;;;;762956;188;26486;-83
2024/01/07 04:51:31;;;;;;;88.27;32.83;;;3.70;99.90;;;;;;763114;188;26481;-82
2024/01/07 04:53:57;;;;;;;79.63;31.30;;;3.60;99.90;;;;;;765339;185;26522;-84
2024/01/07 04:56:32;;;;;;;78.77;31.07;;;3.50;99.70;;;;;;777094;182;26532;-83
2024/01/07 04:59:09;;;;;;;88.00;34.17;;;3.50;99.70;;;;;;774992;185;26494;-84
2024/01/07 05:01:41;;;;;;;90.70;32.00;;;3.40;99.90;;;;;;769715;183;26548;-83
2024/01/07 05:04:21;;;;;;;86.87;32.87;;;3.40;99.90;;;;;;770279;176;26493;-83
2024/01/07 05:07:01;;;;;;;82.07;31.10;;;3.40;99.90;;;;;;773935;185;26503;-84
2024/01/07 05:09:35;;;;;;;85.80;32.23;;;3.40;99.90;;;;;;781338;181;26514;-84
2024/01/07 05:12:25;;;;;;;87.00;32.47;;;3.40;99.90;;;;;;781164;183;26514;-84
2024/01/07 05:15:01;;;;;;;82.63;31.40;;;3.40;99.90;;;;;;776574;184;26518;-83
2024/01/07 05:17:39;;;;;;;84.63;31.53;;;3.40;99.90;;;;;;780043;184;26478;-84
2024/01/07 05:20:13;;;;;;;85.80;32.07;;;3.30;99.90;;;;;;776182;184;26460;-84
2024/01/07 05:22:43;;;;;;;81.80;33.47;;;3.30;99.90;;;;;;775867;184;26464;-84
2024/01/07 05:25:09;;;;;;;81.83;31.57;;;3.40;99.90;;;;;;785429;178;27059;-74
2024/01/07 05:27:36;;;;;;;81.43;30.83;;;3.40;99.90;;;;;;765894;184;26475;-86
2024/01/07 05:30:03;;;;;;;78.60;30.30;;;3.50;99.90;;;;;;766668;185;26468;-83
2024/01/07 05:32:30;;;;;;;75.53;30.10;;;3.50;99.90;;;;;;765322;184;26494;-84
2024/01/07 05:34:56;;;;;;;74.10;29.47;;;3.50;99.90;;;;;;775796;185;26493;-84
2024/01/07 05:37:23;;;;;;;72.97;28.83;;;3.40;99.90;;;;;;775530;183;27056;-85
2024/01/07 05:39:49;;;;;;;77.53;32.17;;;3.40;99.90;;;;;;765977;185;26494;-83
2024/01/07 05:45:09;;;;;;;62.77;26.83;;;3.40;99.80;;;;;;772245;186;26561;-84
2024/01/07 05:47:43;;;;;;;66.93;27.13;;;3.40;99.60;;;;;;777070;184;26493;-84
2024/01/07 05:50:18;;;;;;;64.73;26.63;;;3.30;99.40;;;;;;765430;185;27031;-84
2024/01/07 05:52:53;;;;;;;68.67;29.03;;;3.40;99.50;;;;;;778290;181;26432;-84
2024/01/07 05:55:23;;;;;;;63.80;27.70;;;3.40;99.50;;;;;;781499;180;26591;-83
2024/01/07 05:57:56;;;;;;;61.80;28.27;;;3.40;99.50;;;;;;771635;186;26666;-84
2024/01/07 06:00:31;;;;;;;65.50;29.10;;;3.40;99.20;;;;;;772913;185;26508;-84
2024/01/07 06:03:06;;;;;;;63.80;28.20;;;3.40;99.10;;;;;;776085;185;26500;-84
2024/01/07 06:05:41;;;;;;;65.40;28.33;;;3.30;99.00;;;;;;776262;184;26493;-84
2024/01/07 06:08:08;;;;;;;71.37;30.87;;;3.30;98.90;;;;;;774252;185;26759;-85
2024/01/07 06:10:34;;;;;;;64.00;28.67;;;3.30;98.90;;;;;;778353;184;26445;-84
2024/01/07 06:13:02;;;;;;;70.07;30.37;;;3.30;99.00;;;;;;778419;185;26438;-84
2024/01/07 06:15:27;;;;;;;67.10;30.93;;;3.30;99.00;;;;;;778728;181;26454;-82
2024/01/07 06:17:55;;;;;;;78.77;32.23;;;3.30;99.00;;;;;;774458;185;26544;-84
2024/01/07 06:20:21;;;;;;;72.03;30.87;;;3.40;99.00;;;;;;774837;182;26402;-84
2024/01/07 06:22:49;;;;;;;68.80;30.57;;;3.40;99.00;;;;;;780837;182;27056;-83
2024/01/07 06:25:29;;;;;;;67.90;31.43;;;3.40;98.90;;;;;;777897;184;26509;-84
2024/01/07 06:28:01;;;;;;;69.83;29.57;;;3.40;98.70;;;;;;777099;185;26478;-84
2024/01/07 06:30:38;;;;;;;71.50;31.80;;;3.40;98.60;;;;;;775745;184;26482;-84
2024/01/07 06:33:16;;;;;;;66.53;29.00;;;3.40;98.60;;;;;;773549;185;26457;-83
2024/01/07 06:35:50;;;;;;;66.40;29.40;;;3.40;98.60;;;;;;779832;184;27028;-82
2024/01/07 06:38:24;;;;;;;72.63;31.03;;;3.40;98.50;;;;;;762744;184;26491;-84
2024/01/07 06:41:03;;;;;;;69.60;31.53;;;3.40;98.50;;;;;;779402;182;26421;-83
2024/01/07 06:43:32;;;;;;;66.67;29.23;;;3.40;98.50;;;;;;772210;185;26544;-83
2024/01/07 06:46:09;;;;;;;71.20;30.87;;;3.40;98.50;;;;;;773884;184;26548;-83
2024/01/07 06:49:01;;;;;;;66.30;28.30;;;3.40;98.20;;;;;;777000;184;27103;-83
2024/01/07 06:51:28;;;;;;;72.40;30.13;;;3.30;98.20;;;;;;776064;184;27011;-84
2024/01/07 06:53:54;;;;;;;76.13;32.37;;;3.30;98.20;;;;;;768830;185;26499;-83
2024/01/07 06:56:21;;;;;;;70.43;29.60;;;3.30;98.30;;;;;;775034;185;26496;-84
2024/01/07 06:58:47;;;;;;;78.37;31.27;;;3.30;98.30;;;;;;775530;184;26474;-83
2024/01/07 07:01:14;;;;;;;72.53;30.40;;;3.30;98.30;;;;;;768372;185;26460;-84
2024/01/07 07:03:41;;;;;;;66.33;29.33;;;3.30;98.30;;;;;;779461;182;27013;-81
2024/01/07 07:06:07;;;;;;;63.47;28.83;;;3.30;98.30;;;;;;763294;186;26651;-83
2024/01/07 07:08:34;;;;;;;65.03;28.67;;;3.30;98.30;;;;;;776607;185;26478;-83
2024/01/07 07:11:00;;;;;;;64.27;28.37;;;3.30;98.20;;;;;;769963;184;27069;-84
2024/01/07 07:13:27;;;;;;;61.47;26.30;;;3.30;98.10;;;;;;785654;182;26424;-82
2024/01/07 07:15:54;;;;;;;57.40;26.37;;;3.30;98.10;;;;;;771655;186;28110;-84
2024/01/07 07:18:20;;;;;;;63.67;28.07;;;3.20;97.90;;;;;;767195;185;26503;-84
2024/01/07 07:20:47;;;;;;;57.87;27.73;;;3.20;98.00;;;;;;778121;183;27700;-83
2024/01/07 07:23:13;;;;;;;58.50;27.10;;;3.30;97.90;;;;;;779959;182;26487;-83
2024/01/07 07:25:40;;;;;;;64.53;26.93;;;3.20;97.80;;;;;;771666;186;26599;-83
2024/01/07 07:28:07;;;;;;;57.13;28.50;;;3.30;97.90;;;;;;771562;185;26557;-83
2024/01/07 07:30:33;;;;;;;53.53;24.93;;;3.30;97.70;;;;;;768984;184;26550;-82
2024/01/07 07:33:00;;;;;;;53.57;24.73;;;3.30;98.00;;;;;;778398;182;26507;-84
2024/01/07 07:35:28;;;;;;;54.13;26.43;;;3.30;97.60;;;;;;779720;184;26559;-84
2024/01/07 07:37:53;;;;;;;55.43;25.77;;;3.30;97.40;;;;;;775946;184;28076;-80
2024/01/07 07:40:20;;;;;;;51.93;25.67;;;3.30;97.40;;;;;;779792;183;26445;-83
2024/01/07 07:42:46;;;;;;;56.43;26.40;;;3.30;97.40;;;;;;789242;181;26443;-84
2024/01/07 07:45:13;;;;;;;61.37;26.40;;;3.20;97.10;;;;;;779621;184;26485;-84
2024/01/07 07:47:44;;;;;;;48.50;24.03;;;3.20;97.20;;;;;;779159;184;26484;-84
2024/01/07 07:50:08;;;;;;;49.17;24.50;;;3.30;97.30;;;;;;764395;184;26471;-84
2024/01/07 07:52:34;;;;;;;55.23;25.03;;;3.30;97.20;;;;;;779796;182;26485;-84
2024/01/07 07:55:01;;;;;;;53.37;25.67;;;3.20;97.00;;;;;;779278;184;26549;-84
2024/01/07 07:57:28;;;;;;;58.40;27.27;;;3.20;97.00;;;;;;779054;184;26507;-84
2024/01/07 07:59:55;;;;;;;61.37;27.97;;;3.20;97.00;;;;;;776656;185;26394;-83
2024/01/07 08:02:23;;;;;;;54.70;25.27;;;3.20;97.20;;;;;;780772;184;26483;-82
2024/01/07 08:04:56;;;;;;;55.13;25.97;;;3.20;97.00;;;;;;762918;184;26493;-83
2024/01/07 08:10:18;;;;;;;54.50;26.03;;;3.10;97.10;;;;;;764039;185;26485;-83
2024/01/07 08:12:52;;;;;;;55.67;26.57;;;3.20;97.30;;;;;;779111;180;26453;-83
2024/01/07 08:15:26;;;;;;;57.40;27.57;;;3.20;97.30;;;;;;787470;180;26484;-83
2024/01/07 08:18:02;;;;;;;59.40;26.33;;;3.20;97.30;;;;;;778033;184;27100;-83
2024/01/07 08:20:44;;;;;;;50.13;25.47;;;3.20;97.50;;;;;;775273;185;26459;-82
2024/01/07 08:23:20;;;;;;;55.70;27.07;;;3.30;97.50;;;;;;778220;184;27040;-83
2024/01/07 08:25:52;;;;;;;57.63;27.40;;;3.30;97.30;;;;;;775463;184;26537;-82
2024/01/07 08:30:53;;;;;;;54.40;25.37;;;3.30;97.00;;;;;;775684;185;27005;-82
2024/01/07 08:33:20;;;;;;;50.53;25.70;;;3.30;96.90;;;;;;776197;185;26415;-82
2024/01/07 08:35:46;;;;;;;51.07;25.73;;;3.30;97.00;;;;;;778505;184;26488;-83
2024/01/07 08:38:14;;;;;;;53.40;26.77;;;3.30;97.10;;;;;;772116;184;26546;-82
2024/01/07 08:40:39;;;;;;;53.50;27.03;;;3.30;97.20;;;;;;777810;181;26471;-83
2024/01/07 08:43:06;;;;;;;59.43;27.73;;;3.30;96.90;;;;;;778161;183;26997;-83
2024/01/07 08:45:47;;;;;;;60.47;27.33;;;3.30;97.00;;;;;;780959;182;26444;-80
2024/01/07 08:48:28;;;;;;;53.17;26.40;;;3.20;96.90;;;;;;780751;181;26441;-82
2024/01/07 08:51:03;;;;;;;53.93;25.77;;;3.20;97.00;;;;;;795227;179;26478;-82
2024/01/07 08:53:32;;;;;;;52.90;25.77;;;3.20;97.00;;;;;;775568;183;26440;-83
2024/01/07 08:56:15;;;;;;;58.53;27.23;;;3.20;97.10;;;;;;777785;184;26494;-82
2024/01/07 08:59:01;;;;;;;62.23;29.10;;;3.20;97.20;;;;;;776719;185;26528;-82
2024/01/07 09:04:26;;;;;;;55.10;26.00;;;3.20;97.20;;;;;;760979;184;26561;-83
2024/01/07 09:07:08;;;;;;;57.13;27.20;;;3.20;97.20;;;;;;760983;185;26514;-85
2024/01/07 09:09:42;;;;;;;53.40;26.63;;;3.20;97.10;;;;;;780098;184;26487;-81
2024/01/07 09:12:09;;;;;;;57.03;26.50;;;3.20;97.10;;;;;;780106;184;26522;-80
2024/01/07 09:15:07;;;;;;;49.47;23.03;;;3.20;97.20;;;;;;779980;184;26574;-83
2024/01/07 09:17:46;;;;;;;62.43;27.83;;;3.20;97.10;;;;;;778891;184;26489;-84
2024/01/07 09:20:22;;;;;;;53.20;25.63;;;3.20;97.10;;;;;;777282;185;26578;-83
2024/01/07 09:22:59;;;;;;;58.53;25.57;;;3.20;97.10;;;;;;783179;181;26428;-83
2024/01/07 09:25:35;;;;;;;51.73;24.13;;;3.20;97.00;;;;;;766753;184;27268;-84
2024/01/07 09:30:49;;;;;;;59.23;26.97;;;3.20;97.30;;;;;;778326;181;26540;-83
2024/01/07 09:33:19;;;;;;;51.10;23.70;;;3.10;97.30;;;;;;789550;180;26448;-84
2024/01/07 09:36:05;;;;;;;45.33;22.57;;;3.10;96.70;;;;;;771429;180;26560;-83
2024/01/07 09:38:32;;;;;;;45.33;22.30;;;3.10;96.70;;;;;;780798;179;27019;-84
2024/01/07 09:40:59;;;;;;;47.37;24.47;;;3.10;96.20;;;;;;763261;188;26500;-84
2024/01/07 09:43:25;;;;;;;41.87;21.17;;;3.10;96.10;;;;;;770467;186;28104;-84
2024/01/07 09:45:52;;;;;;;44.07;22.13;;;3.10;96.10;;;;;;777098;182;26465;-83
2024/01/07 09:48:18;;;;;;;47.00;22.50;;;3.10;95.80;;;;;;778968;184;26486;-85
2024/01/07 09:50:45;;;;;;;43.03;21.27;;;3.20;95.70;;;;;;776176;185;26498;-86
2024/01/07 09:53:12;;;;;;;40.70;19.70;;;3.10;95.60;;;;;;774081;184;26474;-81
2024/01/07 09:55:38;;;;;;;34.20;18.40;;;3.10;95.50;;;;;;765682;185;26488;-82
2024/01/07 09:58:06;;;;;;;36.83;19.30;;;3.20;95.50;;;;;;773859;185;26561;-83
2024/01/07 10:00:33;;;;;;;34.97;19.47;;;3.20;95.20;;;;;;776117;185;26487;-83
2024/01/07 10:03:10;;;;;;;33.53;18.67;;;3.30;95.40;;;;;;767176;185;27228;-82
2024/01/07 10:06:03;;;;;;;35.10;18.70;;;3.40;95.40;;;;;;766887;183;26545;-83
2024/01/07 10:08:33;;;;;;;32.03;18.20;;;3.50;95.50;;;;;;761907;185;26492;-83
2024/01/07 10:11:24;;;;;;;34.17;18.20;;;3.60;95.00;;;;;;758991;184;26534;-81
2024/01/07 10:22:06;;;;;;;39.97;18.43;;;3.70;94.90;;;;;;705837;180;26610;-80
2024/01/07 10:24:39;;;;;;;33.87;19.40;;;3.70;94.90;;;;;;779106;183;26494;-85
2024/01/07 10:27:14;;;;;;;35.33;20.27;;;3.80;94.60;;;;;;791123;181;26499;-85
2024/01/07 10:29:42;;;;;;;29.50;17.87;;;3.80;94.70;;;;;;790835;180;26475;-84
2024/01/07 10:32:25;;;;;;;32.83;18.37;;;3.80;94.80;;;;;;774493;185;26563;-83
2024/01/07 10:38:09;;;;;;;30.40;18.30;;;3.60;94.40;;;;;;760752;186;26526;-82
2024/01/07 10:43:17;;;;;;;29.97;16.63;;;3.40;94.90;;;;;;783818;180;26549;-84
2024/01/07 10:46:08;;;;;;;31.03;18.67;;;3.40;94.80;;;;;;784077;183;26496;-83
2024/01/07 10:51:33;;;;;;;37.70;20.23;;;3.50;94.70;;;;;;770996;184;26490;-84
2024/01/07 10:54:17;;;;;;;37.30;19.43;;;3.70;94.90;;;;;;765501;183;26532;-85
2024/01/07 10:56:47;;;;;;;38.47;21.97;;;3.70;94.80;;;;;;765661;185;26504;-84
2024/01/07 10:59:28;;;;;;;43.37;20.30;;;3.70;93.90;;;;;;766007;184;26547;-85
2024/01/07 11:04:50;;;;;;;47.67;22.87;;;3.60;93.70;;;;;;705761;189;26553;-86
2024/01/07 11:07:37;;;;;;;47.67;25.33;;;3.50;93.50;;;;;;755346;186;26541;-86
2024/01/07 11:10:21;;;;;;;45.00;23.80;;;3.50;93.80;;;;;;751682;189;26509;-85
2024/01/07 11:13:03;;;;;;;45.13;22.03;;;3.50;94.00;;;;;;758271;187;26525;-84
2024/01/07 11:15:45;;;;;;;45.77;22.73;;;3.40;93.60;;;;;;754703;187;26520;-82
2024/01/07 11:18:13;;;;;;;47.73;23.03;;;3.50;93.50;;;;;;752122;190;27143;-85
2024/01/07 11:20:44;;;;;;;44.70;21.77;;;3.70;93.80;;;;;;729440;196;26552;-84
2024/01/07 11:23:23;;;;;;;45.17;22.47;;;3.80;93.10;;;;;;752333;185;26516;-82
2024/01/07 11:25:51;;;;;;;44.27;22.70;;;3.80;92.50;;;;;;809330;174;26429;-82
2024/01/07 11:28:19;;;;;;;46.80;25.27;;;3.80;92.50;;;;;;808446;177;26418;-83
2024/01/07 11:30:50;;;;;;;46.13;23.80;;;3.80;92.90;;;;;;808931;177;26432;-83
2024/01/07 11:33:19;;;;;;;45.87;23.13;;;3.80;93.00;;;;;;806521;177;26463;-82
2024/01/07 11:35:58;;;;;;;42.80;23.90;;;3.80;92.90;;;;;;806106;177;26416;-82
2024/01/07 11:38:29;;;;;;;46.97;24.57;;;3.70;92.60;;;;;;781636;182;26469;-82
2024/01/07 11:41:03;;;;;;;47.40;23.33;;;3.70;92.90;;;;;;781644;181;27055;-83
2024/01/07 11:43:48;;;;;;;38.87;21.97;;;3.70;92.70;;;;;;784393;182;27014;-80
2024/01/07 11:46:20;;;;;;;46.07;23.17;;;3.60;92.30;;;;;;782219;181;26488;-83
2024/01/07 11:48:49;;;;;;;44.30;23.47;;;3.60;92.80;;;;;;801159;177;26435;-83
2024/01/07 11:51:18;;;;;;;41.80;22.13;;;3.50;93.20;;;;;;807355;177;26965;-81
2024/01/07 11:53:53;;;;;;;44.80;23.73;;;3.50;92.80;;;;;;779686;175;26536;-83
2024/01/07 11:56:25;;;;;;;40.70;22.30;;;3.40;92.60;;;;;;758014;187;26532;-83
2024/01/07 11:58:58;;;;;;;41.37;23.13;;;3.30;92.40;;;;;;781283;184;26525;-82
2024/01/07 12:01:29;;;;;;;48.57;23.53;;;3.30;92.40;;;;;;763603;187;26538;-82
2024/01/07 12:03:56;;;;;;;49.00;23.03;;;3.20;92.80;;;;;;761889;188;27208;-68
2024/01/07 12:06:22;;;;;;;39.73;21.07;;;3.20;93.40;;;;;;759905;188;26496;-67
2024/01/07 12:08:51;;;;;;;37.87;22.27;;;3.30;93.30;;;;;;761434;186;26494;-80
2024/01/07 12:11:18;;;;;;;35.83;20.33;;;3.40;93.00;;;;;;755393;188;26502;-81
2024/01/07 12:13:44;;;;;;;36.77;21.20;;;3.40;92.30;;;;;;748018;191;26545;-80
2024/01/07 12:16:19;;;;;;;39.53;22.30;;;3.30;92.10;;;;;;758383;188;26534;-82
2024/01/07 12:18:51;;;;;;;36.53;21.90;;;3.30;92.30;;;;;;759630;185;26497;-83
2024/01/07 12:21:22;;;;;;;47.47;22.77;;;3.30;92.30;;;;;;756379;188;26785;-83
2024/01/07 12:23:55;;;;;;;42.57;21.83;;;3.20;92.60;;;;;;764857;187;26520;-83
2024/01/07 12:29:43;;;;;;;39.33;20.10;;;3.30;92.80;;;;;;748683;191;26524;-83
2024/01/07 12:35:02;;;;;;;37.20;20.03;;;3.30;92.50;;;;;;726140;177;26499;-86
2024/01/07 12:37:46;;;;;;;43.70;20.50;;;3.40;92.20;;;;;;778937;184;26499;-84
2024/01/07 12:40:27;;;;;;;40.17;20.80;;;3.30;92.10;;;;;;770675;183;26513;-84
2024/01/07 12:48:27;;;;;;;38.13;19.90;;;3.90;91.80;;;;;;778547;182;26481;-72
2024/01/07 12:50:53;;;;;;;42.53;22.23;;;4.30;92.40;;;;;;805527;177;26493;-70
2024/01/07 12:53:20;;;;;;;36.37;19.20;;;4.80;95.80;;;;;;793172;180;26466;-70
2024/01/07 12:55:47;;;;;;;34.83;19.17;;;5.20;98.00;;;;;;798676;174;26405;-68
2024/01/07 12:58:13;;;;;;;32.90;18.87;;;5.30;98.60;;;;;;810766;174;26891;-68
2024/01/07 13:00:40;;;;;;;33.03;18.07;;;5.30;98.60;;;;;;816554;175;26422;-68
2024/01/07 13:03:08;;;;;;;32.37;17.87;;;5.20;98.90;;;;;;783839;182;26488;-69
2024/01/07 13:05:33;;;;;;;36.87;20.03;;;5.20;99.40;;;;;;789501;182;26467;-69
2024/01/07 13:08:00;;;;;;;37.97;19.47;;;5.00;99.10;;;;;;789776;181;26542;-69
2024/01/07 13:10:27;;;;;;;32.27;16.37;;;4.90;99.40;;;;;;790345;180;27057;-69
2024/01/07 13:12:53;;;;;;;28.83;17.23;;;4.70;98.40;;;;;;789202;180;27053;-69
2024/01/07 13:15:19;;;;;;;26.53;17.30;;;4.60;98.40;;;;;;789657;180;26453;-69
2024/01/07 13:17:46;;;;;;;29.83;17.40;;;4.50;98.50;;;;;;785925;180;27012;-70
2024/01/07 13:20:13;;;;;;;29.83;17.07;;;4.50;98.60;;;;;;790579;180;26473;-68
2024/01/07 13:22:39;;;;;;;30.37;17.83;;;4.50;98.70;;;;;;790244;180;26461;-69
2024/01/07 13:25:06;;;;;;;28.50;16.67;;;4.40;98.60;;;;;;781391;180;26996;-69
2024/01/07 13:27:33;;;;;;;24.20;14.93;;;4.40;98.90;;;;;;800713;178;26456;-69
2024/01/07 13:29:59;;;;;;;24.43;14.37;;;4.40;99.10;;;;;;812273;175;26414;-68
2024/01/07 13:32:26;;;;;;;21.80;12.73;;;4.30;99.00;;;;;;815842;173;28158;-69
2024/01/07 13:34:53;;;;;;;21.40;13.70;;;4.10;98.60;;;;;;780720;180;26443;-69
2024/01/07 13:37:20;;;;;;;23.60;14.60;;;4.00;98.90;;;;;;802924;178;26412;-70
2024/01/07 13:39:46;;;;;;;22.60;13.87;;;4.00;99.30;;;;;;803583;177;30004;-69
2024/01/07 13:42:13;;;;;;;23.73;12.50;;;4.00;99.90;;;;;;803247;178;26405;-78
2024/01/07 13:44:46;;;;;;;20.97;12.37;;;3.80;93.10;;;;;;800386;178;26945;-75
2024/01/07 13:47:07;;;;;;;21.50;12.60;;;3.80;92.30;;;;;;801223;178;26415;-75
2024/01/07 13:49:33;;;;;;;18.97;11.83;;;3.70;91.60;;;;;;808209;174;26435;-75
2024/01/07 13:52:00;;;;;;;26.07;13.57;;;3.50;90.70;;;;;;811210;174;26939;-75
2024/01/07 13:54:26;;;;;;;22.43;12.67;;;3.40;90.60;;;;;;808922;174;26407;-74
2024/01/07 13:56:54;;;;;;;24.73;13.17;;;3.20;90.40;;;;;;789832;179;27107;-74
2024/01/07 13:59:19;;;;;;;21.40;13.47;;;3.10;91.10;;;;;;812601;174;26341;-75
2024/01/07 14:01:46;;;;;;;21.90;14.07;;;3.00;91.30;;;;;;817167;176;26346;-77
2024/01/07 14:04:13;;;;;;;20.10;13.17;;;2.90;91.30;;;;;;807609;175;26420;-77
2024/01/07 14:06:40;;;;;;;27.27;14.87;;;2.80;91.40;;;;;;808245;174;26336;-78
2024/01/07 14:09:08;;;;;;;19.67;13.30;;;2.70;91.30;;;;;;809914;173;26423;-74
2024/01/07 14:11:33;;;;;;;21.80;13.60;;;2.70;91.30;;;;;;815060;174;26408;-74
2024/01/07 14:13:59;;;;;;;22.30;13.93;;;2.50;90.70;;;;;;813858;174;26956;-74